Terminal Aerodrome Forecast
Issued by NWS

Home | Current Version | Previous Version | Text Only | Print | Product List | Glossary On
Versions: 1 2 3 4 5 6 7 8 9 10 11 12 13 14 15 16 17
576
FTAK31 PAJN 210531
TAFAKT
TAF
PAKT 210531Z 2106/2206 16004KT P6SM -SHRA FEW015 OVC035
     FM211000 14010G20KT P6SM VCSH SCT020 BKN040
     FM211500 14018G28KT 6SM -RA BKN025 OVC040 WS020/14040KT
     FM212100 14018G28KT 2SM -SHRA BKN015 OVC025 WS020/14040KT
     FM220200 15012KT 6SM -SHRA SCT015 OVC025
      AMD LTD TO CLD VIS AND WIND 2106/2115=

USA.gov is the U.S. government's official web portal to all federal, state and local government web resources and services.